sensor_id;sensor_type;location;lat;lon;timestamp;P1;durP1;ratioP1;P2;durP2;ratioP2
72813;SDS011;60945;48.516;-2.768;2024-01-07T00:01:02;6.30;;;5.90;;
72813;SDS011;60945;48.516;-2.768;2024-01-07T00:03:27;7.28;;;6.68;;
72813;SDS011;60945;48.516;-2.768;2024-01-07T00:05:56;6.90;;;6.40;;
72813;SDS011;60945;48.516;-2.768;2024-01-07T00:08:22;6.43;;;6.03;;
72813;SDS011;60945;48.516;-2.768;2024-01-07T00:10:50;7.28;;;6.55;;
72813;SDS011;60945;48.516;-2.768;2024-01-07T00:13:15;6.78;;;5.78;;
72813;SDS011;60945;48.516;-2.768;2024-01-07T00:15:41;6.95;;;6.45;;
72813;SDS011;60945;48.516;-2.768;2024-01-07T00:18:06;6.60;;;6.20;;
72813;SDS011;60945;48.516;-2.768;2024-01-07T00:20:32;6.85;;;6.25;;
72813;SDS011;60945;48.516;-2.768;2024-01-07T00:22:58;6.63;;;6.22;;
72813;SDS011;60945;48.516;-2.768;2024-01-07T00:25:24;6.97;;;6.38;;
72813;SDS011;60945;48.516;-2.768;2024-01-07T00:27:49;7.78;;;7.28;;
72813;SDS011;60945;48.516;-2.768;2024-01-07T00:30:16;7.82;;;7.28;;
72813;SDS011;60945;48.516;-2.768;2024-01-07T00:32:44;6.95;;;6.45;;
72813;SDS011;60945;48.516;-2.768;2024-01-07T00:35:10;7.80;;;7.13;;
72813;SDS011;60945;48.516;-2.768;2024-01-07T00:37:35;7.30;;;6.80;;
72813;SDS011;60945;48.516;-2.768;2024-01-07T00:40:01;7.25;;;6.75;;
72813;SDS011;60945;48.516;-2.768;2024-01-07T00:42:26;7.70;;;7.20;;
72813;SDS011;60945;48.516;-2.768;2024-01-07T00:44:52;7.30;;;6.70;;
72813;SDS011;60945;48.516;-2.768;2024-01-07T00:47:18;7.35;;;6.65;;
72813;SDS011;60945;48.516;-2.768;2024-01-07T00:49:43;6.90;;;6.50;;
72813;SDS011;60945;48.516;-2.768;2024-01-07T00:52:09;8.10;;;6.65;;
72813;SDS011;60945;48.516;-2.768;2024-01-07T00:54:35;7.40;;;6.72;;
72813;SDS011;60945;48.516;-2.768;2024-01-07T00:57:01;7.18;;;6.70;;
72813;SDS011;60945;48.516;-2.768;2024-01-07T00:59:28;7.57;;;7.07;;
72813;SDS011;60945;48.516;-2.768;2024-01-07T01:01:54;7.40;;;6.70;;
72813;SDS011;60945;48.516;-2.768;2024-01-07T01:04:20;7.20;;;6.70;;
72813;SDS011;60945;48.516;-2.768;2024-01-07T01:06:47;7.88;;;6.90;;
72813;SDS011;60945;48.516;-2.768;2024-01-07T01:09:12;6.97;;;6.55;;
72813;SDS011;60945;48.516;-2.768;2024-01-07T01:11:38;7.63;;;7.05;;
72813;SDS011;60945;48.516;-2.768;2024-01-07T01:14:04;7.35;;;6.80;;
72813;SDS011;60945;48.516;-2.768;2024-01-07T01:16:29;6.90;;;6.40;;
72813;SDS011;60945;48.516;-2.768;2024-01-07T01:18:55;6.90;;;6.40;;
72813;SDS011;60945;48.516;-2.768;2024-01-07T01:21:21;7.03;;;6.45;;
72813;SDS011;60945;48.516;-2.768;2024-01-07T01:23:46;7.70;;;7.00;;
72813;SDS011;60945;48.516;-2.768;2024-01-07T01:26:12;7.30;;;6.80;;
72813;SDS011;60945;48.516;-2.768;2024-01-07T01:28:38;7.15;;;6.63;;
72813;SDS011;60945;48.516;-2.768;2024-01-07T01:31:03;7.60;;;7.10;;
72813;SDS011;60945;48.516;-2.768;2024-01-07T01:33:29;8.07;;;7.47;;
72813;SDS011;60945;48.516;-2.768;2024-01-07T01:35:55;7.60;;;6.78;;
72813;SDS011;60945;48.516;-2.768;2024-01-07T01:38:21;7.55;;;6.47;;
72813;SDS011;60945;48.516;-2.768;2024-01-07T01:40:53;7.22;;;6.63;;
72813;SDS011;60945;48.516;-2.768;2024-01-07T01:43:25;7.32;;;6.82;;
72813;SDS011;60945;48.516;-2.768;2024-01-07T01:45:55;7.28;;;6.75;;
72813;SDS011;60945;48.516;-2.768;2024-01-07T01:48:22;7.32;;;6.75;;
72813;SDS011;60945;48.516;-2.768;2024-01-07T01:50:49;7.05;;;6.57;;
72813;SDS011;60945;48.516;-2.768;2024-01-07T01:53:15;7.03;;;6.55;;
72813;SDS011;60945;48.516;-2.768;2024-01-07T01:55:41;7.13;;;6.63;;
72813;SDS011;60945;48.516;-2.768;2024-01-07T01:58:12;7.22;;;6.72;;
72813;SDS011;60945;48.516;-2.768;2024-01-07T02:00:38;7.65;;;7.07;;
72813;SDS011;60945;48.516;-2.768;2024-01-07T02:03:05;7.97;;;7.38;;
72813;SDS011;60945;48.516;-2.768;2024-01-07T02:05:30;8.30;;;7.60;;
72813;SDS011;60945;48.516;-2.768;2024-01-07T02:07:57;7.72;;;7.00;;
72813;SDS011;60945;48.516;-2.768;2024-01-07T02:10:23;7.60;;;7.10;;
72813;SDS011;60945;48.516;-2.768;2024-01-07T02:12:49;7.28;;;6.78;;
72813;SDS011;60945;48.516;-2.768;2024-01-07T02:15:15;7.75;;;7.15;;
72813;SDS011;60945;48.516;-2.768;2024-01-07T02:17:41;7.25;;;6.72;;
72813;SDS011;60945;48.516;-2.768;2024-01-07T02:20:06;7.90;;;7.30;;
72813;SDS011;60945;48.516;-2.768;2024-01-07T02:22:32;7.55;;;6.85;;
72813;SDS011;60945;48.516;-2.768;2024-01-07T02:24:58;8.77;;;7.45;;
72813;SDS011;60945;48.516;-2.768;2024-01-07T02:27:23;7.65;;;6.90;;
72813;SDS011;60945;48.516;-2.768;2024-01-07T02:29:49;7.78;;;7.15;;
72813;SDS011;60945;48.516;-2.768;2024-01-07T02:32:15;7.68;;;6.85;;
72813;SDS011;60945;48.516;-2.768;2024-01-07T02:34:40;7.90;;;7.30;;
72813;SDS011;60945;48.516;-2.768;2024-01-07T02:37:06;7.00;;;6.50;;
72813;SDS011;60945;48.516;-2.768;2024-01-07T02:39:32;7.45;;;6.78;;
72813;SDS011;60945;48.516;-2.768;2024-01-07T02:41:57;6.68;;;6.28;;
72813;SDS011;60945;48.516;-2.768;2024-01-07T02:44:23;6.70;;;6.30;;
72813;SDS011;60945;48.516;-2.768;2024-01-07T02:46:49;7.65;;;7.00;;
72813;SDS011;60945;48.516;-2.768;2024-01-07T02:49:14;7.60;;;7.00;;
72813;SDS011;60945;48.516;-2.768;2024-01-07T02:51:40;7.25;;;6.60;;
72813;SDS011;60945;48.516;-2.768;2024-01-07T02:54:06;6.90;;;6.40;;
72813;SDS011;60945;48.516;-2.768;2024-01-07T02:56:31;7.60;;;6.72;;
72813;SDS011;60945;48.516;-2.768;2024-01-07T02:58:57;8.05;;;7.38;;
72813;SDS011;60945;48.516;-2.768;2024-01-07T03:01:22;8.07;;;7.57;;
72813;SDS011;60945;48.516;-2.768;2024-01-07T03:03:48;8.07;;;7.50;;
72813;SDS011;60945;48.516;-2.768;2024-01-07T03:06:14;8.32;;;7.82;;
72813;SDS011;60945;48.516;-2.768;2024-01-07T03:08:40;8.45;;;7.82;;
72813;SDS011;60945;48.516;-2.768;2024-01-07T03:11:06;7.88;;;7.38;;
72813;SDS011;60945;48.516;-2.768;2024-01-07T03:13:32;8.07;;;7.53;;
72813;SDS011;60945;48.516;-2.768;2024-01-07T03:15:58;7.88;;;7.38;;
72813;SDS011;60945;48.516;-2.768;2024-01-07T03:18:24;8.73;;;8.13;;
72813;SDS011;60945;48.516;-2.768;2024-01-07T03:20:49;8.50;;;7.90;;
72813;SDS011;60945;48.516;-2.768;2024-01-07T03:23:15;8.18;;;7.43;;
72813;SDS011;60945;48.516;-2.768;2024-01-07T03:25:41;8.07;;;7.47;;
72813;SDS011;60945;48.516;-2.768;2024-01-07T03:28:06;7.35;;;6.78;;
72813;SDS011;60945;48.516;-2.768;2024-01-07T03:30:33;8.82;;;7.03;;
72813;SDS011;60945;48.516;-2.768;2024-01-07T03:32:58;8.27;;;7.57;;
72813;SDS011;60945;48.516;-2.768;2024-01-07T03:35:24;7.70;;;7.20;;
72813;SDS011;60945;48.516;-2.768;2024-01-07T03:37:50;7.90;;;7.40;;
72813;SDS011;60945;48.516;-2.768;2024-01-07T03:40:15;8.35;;;7.85;;
72813;SDS011;60945;48.516;-2.768;2024-01-07T03:42:41;7.70;;;7.25;;
72813;SDS011;60945;48.516;-2.768;2024-01-07T03:45:06;7.43;;;6.93;;
72813;SDS011;60945;48.516;-2.768;2024-01-07T03:47:32;6.88;;;6.38;;
72813;SDS011;60945;48.516;-2.768;2024-01-07T03:49:58;6.70;;;6.20;;
72813;SDS011;60945;48.516;-2.768;2024-01-07T03:52:23;7.65;;;7.00;;
72813;SDS011;60945;48.516;-2.768;2024-01-07T03:54:49;7.60;;;6.90;;
72813;SDS011;60945;48.516;-2.768;2024-01-07T03:57:15;7.20;;;6.70;;
72813;SDS011;60945;48.516;-2.768;2024-01-07T03:59:40;8.10;;;7.38;;
72813;SDS011;60945;48.516;-2.768;2024-01-07T04:02:06;8.30;;;7.82;;
72813;SDS011;60945;48.516;-2.768;2024-01-07T04:04:32;8.20;;;7.57;;
72813;SDS011;60945;48.516;-2.768;2024-01-07T04:06:57;8.00;;;7.40;;
72813;SDS011;60945;48.516;-2.768;2024-01-07T04:09:23;7.72;;;7.32;;
72813;SDS011;60945;48.516;-2.768;2024-01-07T04:11:48;8.73;;;7.68;;
72813;SDS011;60945;48.516;-2.768;2024-01-07T04:14:14;8.20;;;7.70;;
72813;SDS011;60945;48.516;-2.768;2024-01-07T04:16:40;7.70;;;7.00;;
72813;SDS011;60945;48.516;-2.768;2024-01-07T04:19:06;7.78;;;7.10;;
72813;SDS011;60945;48.516;-2.768;2024-01-07T04:21:32;10.18;;;9.15;;
72813;SDS011;60945;48.516;-2.768;2024-01-07T04:23:57;7.97;;;7.38;;
72813;SDS011;60945;48.516;-2.768;2024-01-07T04:26:23;8.27;;;7.20;;
72813;SDS011;60945;48.516;-2.768;2024-01-07T04:28:49;8.63;;;7.85;;
72813;SDS011;60945;48.516;-2.768;2024-01-07T04:31:15;8.88;;;8.10;;
72813;SDS011;60945;48.516;-2.768;2024-01-07T04:33:41;7.93;;;7.32;;
72813;SDS011;60945;48.516;-2.768;2024-01-07T04:36:06;7.65;;;7.05;;
72813;SDS011;60945;48.516;-2.768;2024-01-07T04:38:32;8.07;;;7.40;;
72813;SDS011;60945;48.516;-2.768;2024-01-07T04:40:58;7.40;;;7.00;;
72813;SDS011;60945;48.516;-2.768;2024-01-07T04:43:23;8.18;;;7.43;;
72813;SDS011;60945;48.516;-2.768;2024-01-07T04:45:49;7.80;;;7.30;;
72813;SDS011;60945;48.516;-2.768;2024-01-07T04:48:14;8.00;;;7.40;;
72813;SDS011;60945;48.516;-2.768;2024-01-07T04:50:40;7.68;;;7.18;;
72813;SDS011;60945;48.516;-2.768;2024-01-07T04:53:09;8.10;;;7.50;;
72813;SDS011;60945;48.516;-2.768;2024-01-07T04:55:35;7.80;;;7.20;;
72813;SDS011;60945;48.516;-2.768;2024-01-07T04:58:01;7.88;;;7.35;;
72813;SDS011;60945;48.516;-2.768;2024-01-07T05:00:29;8.52;;;8.02;;
72813;SDS011;60945;48.516;-2.768;2024-01-07T05:02:54;8.15;;;7.68;;
72813;SDS011;60945;48.516;-2.768;2024-01-07T05:05:20;8.85;;;8.20;;
72813;SDS011;60945;48.516;-2.768;2024-01-07T05:07:45;8.18;;;7.68;;
72813;SDS011;60945;48.516;-2.768;2024-01-07T05:10:11;8.23;;;7.72;;
72813;SDS011;60945;48.516;-2.768;2024-01-07T05:12:37;8.40;;;7.90;;
72813;SDS011;60945;48.516;-2.768;2024-01-07T05:15:03;8.75;;;8.05;;
72813;SDS011;60945;48.516;-2.768;2024-01-07T05:17:29;8.30;;;7.80;;
72813;SDS011;60945;48.516;-2.768;2024-01-07T05:19:55;7.95;;;7.55;;
72813;SDS011;60945;48.516;-2.768;2024-01-07T05:22:21;8.05;;;7.55;;
72813;SDS011;60945;48.516;-2.768;2024-01-07T05:24:47;8.52;;;7.88;;
72813;SDS011;60945;48.516;-2.768;2024-01-07T05:27:12;8.57;;;7.95;;
72813;SDS011;60945;48.516;-2.768;2024-01-07T05:29:38;8.07;;;7.53;;
72813;SDS011;60945;48.516;-2.768;2024-01-07T05:32:04;8.55;;;8.05;;
72813;SDS011;60945;48.516;-2.768;2024-01-07T05:34:30;8.45;;;7.95;;
72813;SDS011;60945;48.516;-2.768;2024-01-07T05:36:56;8.38;;;7.88;;
72813;SDS011;60945;48.516;-2.768;2024-01-07T05:39:22;8.75;;;8.25;;
72813;SDS011;60945;48.516;-2.768;2024-01-07T05:41:47;8.93;;;8.32;;
72813;SDS011;60945;48.516;-2.768;2024-01-07T05:44:13;9.60;;;9.00;;
72813;SDS011;60945;48.516;-2.768;2024-01-07T05:46:39;8.18;;;7.68;;
72813;SDS011;60945;48.516;-2.768;2024-01-07T05:49:05;9.30;;;8.70;;
72813;SDS011;60945;48.516;-2.768;2024-01-07T05:51:31;9.93;;;9.15;;
72813;SDS011;60945;48.516;-2.768;2024-01-07T05:53:57;9.13;;;8.55;;
72813;SDS011;60945;48.516;-2.768;2024-01-07T05:56:22;9.52;;;8.88;;
72813;SDS011;60945;48.516;-2.768;2024-01-07T05:58:48;9.40;;;8.80;;
72813;SDS011;60945;48.516;-2.768;2024-01-07T06:01:23;9.27;;;8.68;;
72813;SDS011;60945;48.516;-2.768;2024-01-07T06:03:48;9.23;;;8.52;;
72813;SDS011;60945;48.516;-2.768;2024-01-07T06:06:14;8.23;;;7.53;;
72813;SDS011;60945;48.516;-2.768;2024-01-07T06:08:43;8.10;;;7.53;;
72813;SDS011;60945;48.516;-2.768;2024-01-07T06:11:09;8.07;;;7.47;;
72813;SDS011;60945;48.516;-2.768;2024-01-07T06:13:37;7.68;;;7.28;;
72813;SDS011;60945;48.516;-2.768;2024-01-07T06:16:02;7.57;;;7.10;;
72813;SDS011;60945;48.516;-2.768;2024-01-07T06:18:28;7.68;;;7.03;;
72813;SDS011;60945;48.516;-2.768;2024-01-07T06:20:54;7.70;;;7.07;;
72813;SDS011;60945;48.516;-2.768;2024-01-07T06:23:19;7.65;;;7.15;;
72813;SDS011;60945;48.516;-2.768;2024-01-07T06:25:45;8.48;;;7.70;;
72813;SDS011;60945;48.516;-2.768;2024-01-07T06:28:10;8.15;;;7.55;;
72813;SDS011;60945;48.516;-2.768;2024-01-07T06:30:36;8.35;;;7.75;;
72813;SDS011;60945;48.516;-2.768;2024-01-07T06:33:02;8.38;;;7.65;;
72813;SDS011;60945;48.516;-2.768;2024-01-07T06:35:27;8.10;;;7.60;;
72813;SDS011;60945;48.516;-2.768;2024-01-07T06:37:53;7.88;;;7.28;;
72813;SDS011;60945;48.516;-2.768;2024-01-07T06:40:19;8.10;;;7.50;;
72813;SDS011;60945;48.516;-2.768;2024-01-07T06:42:45;8.02;;;7.40;;
72813;SDS011;60945;48.516;-2.768;2024-01-07T06:45:12;8.27;;;7.68;;
72813;SDS011;60945;48.516;-2.768;2024-01-07T06:47:39;7.65;;;7.10;;
72813;SDS011;60945;48.516;-2.768;2024-01-07T06:50:05;7.57;;;7.18;;
72813;SDS011;60945;48.516;-2.768;2024-01-07T06:52:31;7.65;;;7.15;;
72813;SDS011;60945;48.516;-2.768;2024-01-07T06:54:57;7.72;;;7.22;;
72813;SDS011;60945;48.516;-2.768;2024-01-07T06:57:23;8.43;;;7.55;;
72813;SDS011;60945;48.516;-2.768;2024-01-07T06:59:48;8.40;;;7.57;;
72813;SDS011;60945;48.516;-2.768;2024-01-07T07:02:14;8.18;;;7.57;;
72813;SDS011;60945;48.516;-2.768;2024-01-07T07:04:39;7.97;;;7.50;;
72813;SDS011;60945;48.516;-2.768;2024-01-07T07:07:05;8.00;;;7.40;;
72813;SDS011;60945;48.516;-2.768;2024-01-07T07:09:30;8.88;;;8.27;;
72813;SDS011;60945;48.516;-2.768;2024-01-07T07:11:56;7.55;;;7.15;;
72813;SDS011;60945;48.516;-2.768;2024-01-07T07:14:22;7.93;;;7.30;;
72813;SDS011;60945;48.516;-2.768;2024-01-07T07:16:47;8.48;;;7.97;;
72813;SDS011;60945;48.516;-2.768;2024-01-07T07:19:13;7.72;;;7.20;;
72813;SDS011;60945;48.516;-2.768;2024-01-07T07:21:40;8.50;;;7.70;;
72813;SDS011;60945;48.516;-2.768;2024-01-07T07:24:06;8.75;;;8.15;;
72813;SDS011;60945;48.516;-2.768;2024-01-07T07:26:33;8.98;;;8.38;;
72813;SDS011;60945;48.516;-2.768;2024-01-07T07:29:00;9.48;;;8.43;;
72813;SDS011;60945;48.516;-2.768;2024-01-07T07:31:27;8.52;;;8.02;;
72813;SDS011;60945;48.516;-2.768;2024-01-07T07:33:52;8.93;;;8.32;;
72813;SDS011;60945;48.516;-2.768;2024-01-07T07:36:18;8.85;;;8.25;;
72813;SDS011;60945;48.516;-2.768;2024-01-07T07:38:43;9.27;;;8.68;;
72813;SDS011;60945;48.516;-2.768;2024-01-07T07:41:09;8.50;;;8.00;;
72813;SDS011;60945;48.516;-2.768;2024-01-07T07:43:35;7.93;;;7.43;;
72813;SDS011;60945;48.516;-2.768;2024-01-07T07:46:00;8.00;;;7.50;;
72813;SDS011;60945;48.516;-2.768;2024-01-07T07:48:28;7.80;;;7.40;;
72813;SDS011;60945;48.516;-2.768;2024-01-07T07:50:54;8.15;;;7.43;;
72813;SDS011;60945;48.516;-2.768;2024-01-07T07:53:19;8.05;;;7.35;;
72813;SDS011;60945;48.516;-2.768;2024-01-07T07:55:45;8.10;;;7.60;;
72813;SDS011;60945;48.516;-2.768;2024-01-07T07:58:11;7.85;;;7.25;;
72813;SDS011;60945;48.516;-2.768;2024-01-07T08:00:36;8.35;;;7.75;;
72813;SDS011;60945;48.516;-2.768;2024-01-07T08:03:02;8.00;;;7.32;;
72813;SDS011;60945;48.516;-2.768;2024-01-07T08:05:28;9.23;;;8.50;;
72813;SDS011;60945;48.516;-2.768;2024-01-07T08:07:53;8.32;;;7.72;;
72813;SDS011;60945;48.516;-2.768;2024-01-07T08:10:20;8.00;;;7.50;;
72813;SDS011;60945;48.516;-2.768;2024-01-07T08:12:47;7.55;;;7.05;;
72813;SDS011;60945;48.516;-2.768;2024-01-07T08:15:14;7.65;;;7.25;;
72813;SDS011;60945;48.516;-2.768;2024-01-07T08:17:39;7.72;;;7.22;;
72813;SDS011;60945;48.516;-2.768;2024-01-07T08:20:05;7.80;;;7.32;;
72813;SDS011;60945;48.516;-2.768;2024-01-07T08:22:31;8.07;;;7.57;;
72813;SDS011;60945;48.516;-2.768;2024-01-07T08:24:57;8.30;;;7.75;;
72813;SDS011;60945;48.516;-2.768;2024-01-07T08:27:23;8.80;;;8.00;;
72813;SDS011;60945;48.516;-2.768;2024-01-07T08:29:48;8.38;;;7.72;;
72813;SDS011;60945;48.516;-2.768;2024-01-07T08:32:14;8.80;;;8.05;;
72813;SDS011;60945;48.516;-2.768;2024-01-07T08:34:39;8.70;;;8.18;;
72813;SDS011;60945;48.516;-2.768;2024-01-07T08:37:06;8.40;;;7.82;;
72813;SDS011;60945;48.516;-2.768;2024-01-07T08:39:32;11.52;;;8.15;;
72813;SDS011;60945;48.516;-2.768;2024-01-07T08:41:58;8.85;;;8.25;;
72813;SDS011;60945;48.516;-2.768;2024-01-07T08:44:24;8.95;;;8.10;;
72813;SDS011;60945;48.516;-2.768;2024-01-07T08:46:49;8.70;;;8.10;;
72813;SDS011;60945;48.516;-2.768;2024-01-07T08:49:15;9.48;;;8.75;;
72813;SDS011;60945;48.516;-2.768;2024-01-07T08:51:41;8.80;;;8.00;;
72813;SDS011;60945;48.516;-2.768;2024-01-07T08:54:09;7.95;;;7.45;;
72813;SDS011;60945;48.516;-2.768;2024-01-07T08:56:35;8.63;;;7.95;;
72813;SDS011;60945;48.516;-2.768;2024-01-07T08:59:01;8.88;;;8.18;;
72813;SDS011;60945;48.516;-2.768;2024-01-07T09:01:26;9.30;;;8.40;;
72813;SDS011;60945;48.516;-2.768;2024-01-07T09:03:52;8.55;;;7.82;;
72813;SDS011;60945;48.516;-2.768;2024-01-07T09:06:17;8.40;;;7.72;;
72813;SDS011;60945;48.516;-2.768;2024-01-07T09:08:43;8.45;;;7.93;;
72813;SDS011;60945;48.516;-2.768;2024-01-07T09:11:09;8.90;;;8.20;;
72813;SDS011;60945;48.516;-2.768;2024-01-07T09:13:37;8.77;;;8.10;;
72813;SDS011;60945;48.516;-2.768;2024-01-07T09:16:04;9.02;;;8.23;;
72813;SDS011;60945;48.516;-2.768;2024-01-07T09:18:29;8.10;;;7.70;;
72813;SDS011;60945;48.516;-2.768;2024-01-07T09:20:55;8.48;;;7.82;;
72813;SDS011;60945;48.516;-2.768;2024-01-07T09:23:21;8.82;;;8.00;;
72813;SDS011;60945;48.516;-2.768;2024-01-07T09:25:47;8.82;;;8.23;;
72813;SDS011;60945;48.516;-2.768;2024-01-07T09:28:14;8.80;;;8.07;;
72813;SDS011;60945;48.516;-2.768;2024-01-07T09:30:40;8.98;;;8.25;;
72813;SDS011;60945;48.516;-2.768;2024-01-07T09:33:05;8.65;;;8.10;;
72813;SDS011;60945;48.516;-2.768;2024-01-07T09:35:31;8.63;;;8.13;;
72813;SDS011;60945;48.516;-2.768;2024-01-07T09:37:57;8.77;;;8.15;;
72813;SDS011;60945;48.516;-2.768;2024-01-07T09:40:22;8.60;;;8.10;;
72813;SDS011;60945;48.516;-2.768;2024-01-07T09:42:48;9.00;;;8.40;;
72813;SDS011;60945;48.516;-2.768;2024-01-07T09:45:15;9.95;;;9.15;;
72813;SDS011;60945;48.516;-2.768;2024-01-07T09:47:41;9.10;;;8.60;;
72813;SDS011;60945;48.516;-2.768;2024-01-07T09:50:10;9.27;;;8.57;;
72813;SDS011;60945;48.516;-2.768;2024-01-07T09:52:35;9.32;;;8.57;;
72813;SDS011;60945;48.516;-2.768;2024-01-07T09:55:08;11.90;;;8.77;;
72813;SDS011;60945;48.516;-2.768;2024-01-07T09:57:38;9.40;;;8.70;;
72813;SDS011;60945;48.516;-2.768;2024-01-07T10:00:08;9.10;;;8.40;;
72813;SDS011;60945;48.516;-2.768;2024-01-07T10:02:34;9.13;;;8.52;;
72813;SDS011;60945;48.516;-2.768;2024-01-07T10:05:01;9.50;;;8.82;;
72813;SDS011;60945;48.516;-2.768;2024-01-07T10:07:27;9.88;;;8.95;;
72813;SDS011;60945;48.516;-2.768;2024-01-07T10:09:53;9.50;;;8.80;;
72813;SDS011;60945;48.516;-2.768;2024-01-07T10:12:24;9.73;;;9.10;;
72813;SDS011;60945;48.516;-2.768;2024-01-07T10:14:49;9.13;;;8.48;;
72813;SDS011;60945;48.516;-2.768;2024-01-07T10:17:15;9.32;;;8.73;;
72813;SDS011;60945;48.516;-2.768;2024-01-07T10:19:44;9.68;;;9.05;;
72813;SDS011;60945;48.516;-2.768;2024-01-07T10:22:13;8.85;;;8.30;;
72813;SDS011;60945;48.516;-2.768;2024-01-07T10:24:41;9.20;;;8.45;;
72813;SDS011;60945;48.516;-2.768;2024-01-07T10:27:08;9.13;;;8.50;;
72813;SDS011;60945;48.516;-2.768;2024-01-07T10:29:34;9.02;;;8.32;;
72813;SDS011;60945;48.516;-2.768;2024-01-07T10:32:00;9.50;;;8.80;;
72813;SDS011;60945;48.516;-2.768;2024-01-07T10:34:33;9.93;;;9.13;;
72813;SDS011;60945;48.516;-2.768;2024-01-07T10:37:00;9.18;;;8.52;;
72813;SDS011;60945;48.516;-2.768;2024-01-07T10:39:28;9.32;;;8.50;;
72813;SDS011;60945;48.516;-2.768;2024-01-07T10:41:57;8.88;;;8.38;;
72813;SDS011;60945;48.516;-2.768;2024-01-07T10:44:24;9.43;;;8.73;;
72813;SDS011;60945;48.516;-2.768;2024-01-07T10:46:57;9.50;;;8.73;;
72813;SDS011;60945;48.516;-2.768;2024-01-07T10:49:24;9.43;;;8.55;;
72813;SDS011;60945;48.516;-2.768;2024-01-07T10:54:29;9.60;;;9.00;;
72813;SDS011;60945;48.516;-2.768;2024-01-07T10:56:57;9.27;;;8.52;;
72813;SDS011;60945;48.516;-2.768;2024-01-07T10:59:25;8.98;;;8.48;;
72813;SDS011;60945;48.516;-2.768;2024-01-07T11:01:53;8.70;;;8.20;;
72813;SDS011;60945;48.516;-2.768;2024-01-07T11:04:23;11.30;;;8.70;;
72813;SDS011;60945;48.516;-2.768;2024-01-07T11:12:19;9.00;;;8.30;;
72813;SDS011;60945;48.516;-2.768;2024-01-07T11:14:45;8.68;;;8.18;;
72813;SDS011;60945;48.516;-2.768;2024-01-07T11:17:23;9.55;;;8.55;;
72813;SDS011;60945;48.516;-2.768;2024-01-07T11:20:06;8.18;;;7.68;;
72813;SDS011;60945;48.516;-2.768;2024-01-07T11:22:36;8.57;;;8.00;;
72813;SDS011;60945;48.516;-2.768;2024-01-07T11:25:02;8.30;;;7.55;;
72813;SDS011;60945;48.516;-2.768;2024-01-07T11:27:31;9.38;;;8.18;;
72813;SDS011;60945;48.516;-2.768;2024-01-07T11:30:05;9.13;;;8.45;;
72813;SDS011;60945;48.516;-2.768;2024-01-07T11:32:34;8.57;;;7.85;;
72813;SDS011;60945;48.516;-2.768;2024-01-07T11:35:00;8.85;;;8.25;;
72813;SDS011;60945;48.516;-2.768;2024-01-07T11:37:27;8.85;;;8.20;;
72813;SDS011;60945;48.516;-2.768;2024-01-07T11:40:03;8.85;;;8.23;;
72813;SDS011;60945;48.516;-2.768;2024-01-07T11:42:31;9.38;;;8.70;;
72813;SDS011;60945;48.516;-2.768;2024-01-07T11:44:57;9.70;;;8.95;;
72813;SDS011;60945;48.516;-2.768;2024-01-07T11:47:23;10.00;;;9.40;;
72813;SDS011;60945;48.516;-2.768;2024-01-07T11:49:50;8.90;;;8.40;;
72813;SDS011;60945;48.516;-2.768;2024-01-07T11:52:16;8.70;;;8.10;;
72813;SDS011;60945;48.516;-2.768;2024-01-07T11:54:43;9.63;;;8.77;;
72813;SDS011;60945;48.516;-2.768;2024-01-07T11:57:09;8.68;;;7.88;;
72813;SDS011;60945;48.516;-2.768;2024-01-07T11:59:35;8.98;;;8.38;;
72813;SDS011;60945;48.516;-2.768;2024-01-07T12:02:02;8.68;;;8.07;;
72813;SDS011;60945;48.516;-2.768;2024-01-07T12:04:33;8.88;;;8.20;;
72813;SDS011;60945;48.516;-2.768;2024-01-07T12:06:59;8.80;;;8.13;;
72813;SDS011;60945;48.516;-2.768;2024-01-07T12:09:26;9.20;;;7.43;;
72813;SDS011;60945;48.516;-2.768;2024-01-07T12:11:51;8.23;;;7.57;;
72813;SDS011;60945;48.516;-2.768;2024-01-07T12:14:18;8.10;;;7.35;;
72813;SDS011;60945;48.516;-2.768;2024-01-07T12:16:44;8.00;;;7.40;;
72813;SDS011;60945;48.516;-2.768;2024-01-07T12:19:10;8.30;;;7.80;;
72813;SDS011;60945;48.516;-2.768;2024-01-07T12:21:37;8.45;;;7.72;;
72813;SDS011;60945;48.516;-2.768;2024-01-07T12:24:03;8.25;;;7.65;;
72813;SDS011;60945;48.516;-2.768;2024-01-07T12:26:29;7.93;;;7.43;;
72813;SDS011;60945;48.516;-2.768;2024-01-07T12:28:56;7.78;;;7.28;;
72813;SDS011;60945;48.516;-2.768;2024-01-07T12:31:30;8.13;;;7.63;;
72813;SDS011;60945;48.516;-2.768;2024-01-07T12:33:56;8.55;;;7.93;;
72813;SDS011;60945;48.516;-2.768;2024-01-07T12:36:23;7.82;;;7.13;;
72813;SDS011;60945;48.516;-2.768;2024-01-07T12:38:49;8.38;;;7.65;;
72813;SDS011;60945;48.516;-2.768;2024-01-07T12:41:16;8.35;;;7.78;;
72813;SDS011;60945;48.516;-2.768;2024-01-07T12:43:42;8.90;;;8.02;;
72813;SDS011;60945;48.516;-2.768;2024-01-07T12:46:08;7.45;;;6.95;;
72813;SDS011;60945;48.516;-2.768;2024-01-07T12:48:34;7.40;;;6.72;;
72813;SDS011;60945;48.516;-2.768;2024-01-07T12:51:00;7.88;;;7.20;;
72813;SDS011;60945;48.516;-2.768;2024-01-07T12:53:26;8.07;;;7.55;;
72813;SDS011;60945;48.516;-2.768;2024-01-07T12:55:52;8.20;;;7.63;;
72813;SDS011;60945;48.516;-2.768;2024-01-07T12:58:18;8.20;;;7.47;;
72813;SDS011;60945;48.516;-2.768;2024-01-07T13:00:43;8.15;;;7.53;;
72813;SDS011;60945;48.516;-2.768;2024-01-07T13:03:09;8.57;;;7.78;;
72813;SDS011;60945;48.516;-2.768;2024-01-07T13:05:53;8.10;;;7.50;;
72813;SDS011;60945;48.516;-2.768;2024-01-07T13:08:19;8.40;;;7.40;;
72813;SDS011;60945;48.516;-2.768;2024-01-07T13:10:47;8.13;;;7.47;;
72813;SDS011;60945;48.516;-2.768;2024-01-07T13:13:13;8.63;;;7.90;;
72813;SDS011;60945;48.516;-2.768;2024-01-07T13:15:39;7.63;;;7.03;;
72813;SDS011;60945;48.516;-2.768;2024-01-07T13:18:06;7.95;;;7.25;;
72813;SDS011;60945;48.516;-2.768;2024-01-07T13:20:32;7.60;;;7.10;;
72813;SDS011;60945;48.516;-2.768;2024-01-07T13:22:57;10.35;;;7.75;;
72813;SDS011;60945;48.516;-2.768;2024-01-07T13:25:23;7.85;;;7.35;;
72813;SDS011;60945;48.516;-2.768;2024-01-07T13:27:48;7.82;;;7.20;;
72813;SDS011;60945;48.516;-2.768;2024-01-07T13:30:14;7.55;;;7.05;;
72813;SDS011;60945;48.516;-2.768;2024-01-07T13:32:41;7.90;;;7.10;;
72813;SDS011;60945;48.516;-2.768;2024-01-07T13:35:07;7.72;;;7.10;;
72813;SDS011;60945;48.516;-2.768;2024-01-07T13:37:35;8.15;;;7.35;;
72813;SDS011;60945;48.516;-2.768;2024-01-07T13:40:01;8.13;;;7.40;;
72813;SDS011;60945;48.516;-2.768;2024-01-07T13:42:28;7.43;;;6.78;;
72813;SDS011;60945;48.516;-2.768;2024-01-07T13:44:54;8.02;;;7.22;;
72813;SDS011;60945;48.516;-2.768;2024-01-07T13:47:20;6.57;;;6.03;;
72813;SDS011;60945;48.516;-2.768;2024-01-07T13:49:46;7.57;;;6.97;;
72813;SDS011;60945;48.516;-2.768;2024-01-07T13:52:12;6.95;;;6.50;;
72813;SDS011;60945;48.516;-2.768;2024-01-07T13:54:37;6.78;;;6.22;;
72813;SDS011;60945;48.516;-2.768;2024-01-07T13:57:03;6.57;;;6.07;;
72813;SDS011;60945;48.516;-2.768;2024-01-07T13:59:29;7.82;;;7.25;;
72813;SDS011;60945;48.516;-2.768;2024-01-07T14:01:55;6.97;;;6.47;;
72813;SDS011;60945;48.516;-2.768;2024-01-07T14:04:22;7.32;;;6.82;;
72813;SDS011;60945;48.516;-2.768;2024-01-07T14:06:53;7.88;;;7.28;;
72813;SDS011;60945;48.516;-2.768;2024-01-07T14:09:22;7.65;;;7.03;;
72813;SDS011;60945;48.516;-2.768;2024-01-07T14:11:48;8.45;;;6.82;;
72813;SDS011;60945;48.516;-2.768;2024-01-07T14:14:13;6.47;;;5.97;;
72813;SDS011;60945;48.516;-2.768;2024-01-07T14:16:39;7.28;;;6.68;;
72813;SDS011;60945;48.516;-2.768;2024-01-07T14:19:05;7.57;;;6.95;;
72813;SDS011;60945;48.516;-2.768;2024-01-07T14:21:31;7.63;;;6.95;;
72813;SDS011;60945;48.516;-2.768;2024-01-07T14:23:57;7.43;;;6.65;;
72813;SDS011;60945;48.516;-2.768;2024-01-07T14:26:22;7.18;;;6.47;;
72813;SDS011;60945;48.516;-2.768;2024-01-07T14:28:49;7.38;;;6.65;;
72813;SDS011;60945;48.516;-2.768;2024-01-07T14:31:18;7.82;;;7.13;;
72813;SDS011;60945;48.516;-2.768;2024-01-07T14:33:44;7.90;;;6.50;;
72813;SDS011;60945;48.516;-2.768;2024-01-07T14:36:10;7.32;;;6.72;;